createdAt,value
2023-05-01T05:39:33.645Z,41.76
2023-05-01T05:42:03.851Z,41.24
2023-05-01T05:44:33.008Z,41.68
2023-05-01T05:47:01.453Z,41.20
2023-05-01T05:49:33.174Z,41.77
2023-05-01T05:52:01.400Z,41.61
2023-05-01T05:54:29.698Z,41.42
2023-05-01T05:56:58.093Z,41.68
2023-05-01T05:59:26.739Z,41.11
2023-05-01T06:01:55.212Z,41.28
2023-05-01T06:04:23.616Z,41.09
2023-05-01T06:06:52.022Z,41.19
2023-05-01T06:09:20.322Z,41.18
2023-05-01T06:11:48.689Z,40.82
2023-05-01T06:14:17.046Z,40.97
2023-05-01T06:16:46.279Z,40.42
2023-05-01T06:19:15.535Z,40.46
2023-05-01T06:21:44.519Z,40.11
2023-05-01T06:24:13.499Z,40.23
2023-05-01T06:26:47.951Z,40.06
2023-05-01T06:29:18.258Z,39.95
2023-05-01T06:31:46.751Z,39.71
2023-05-01T06:34:15.209Z,39.64
2023-05-01T06:36:51.655Z,39.84
2023-05-01T06:39:21.293Z,39.45
2023-05-01T06:41:49.896Z,39.47
2023-05-01T06:44:22.236Z,39.67
2023-05-01T06:46:50.698Z,39.61
2023-05-01T06:49:18.996Z,39.37
2023-05-01T06:51:47.438Z,39.38
2023-05-01T06:54:15.754Z,39.56
2023-05-01T06:56:44.097Z,39.41
2023-05-01T06:59:12.255Z,39.36
2023-05-01T07:01:40.707Z,39.41
2023-05-01T07:04:09.087Z,39.19
2023-05-01T07:06:37.788Z,39.04
2023-05-01T07:09:06.463Z,38.97
2023-05-01T07:11:37.109Z,39.08
2023-05-01T07:14:04.935Z,38.82
2023-05-01T07:16:33.608Z,38.89
2023-05-01T07:19:03.107Z,38.62
2023-05-01T07:21:32.332Z,38.51
2023-05-01T07:24:00.570Z,38.78
2023-05-01T07:26:28.846Z,38.54
2023-05-01T07:28:57.121Z,38.43
2023-05-01T07:31:25.345Z,38.50
2023-05-01T07:33:54.332Z,38.60
2023-05-01T07:36:23.034Z,38.68
2023-05-01T07:38:51.503Z,38.39
2023-05-01T07:41:19.772Z,38.43
2023-05-01T07:43:47.980Z,38.38
2023-05-01T07:46:17.101Z,38.45
2023-05-01T07:48:45.549Z,38.33
2023-05-01T07:51:14.874Z,37.94
2023-05-01T07:53:43.096Z,37.59
2023-05-01T07:56:11.609Z,38.08
2023-05-01T07:58:42.603Z,37.90
2023-05-01T08:01:10.682Z,37.77
2023-05-01T08:03:39.156Z,37.78
2023-05-01T08:06:08.460Z,37.22
2023-05-01T08:08:38.841Z,37.77
2023-05-01T08:11:08.863Z,37.21
2023-05-01T08:13:38.070Z,37.43
2023-05-01T08:16:08.184Z,37.57
2023-05-01T08:18:36.574Z,37.03
2023-05-01T08:21:06.527Z,36.28
2023-05-01T08:23:34.998Z,36.68
2023-05-01T08:26:07.342Z,36.80
2023-05-01T08:28:36.016Z,36.69
2023-05-01T08:31:04.750Z,36.85
2023-05-01T08:33:32.799Z,36.56
2023-05-01T08:36:00.766Z,36.77
2023-05-01T08:38:29.173Z,36.75
2023-05-01T08:40:59.684Z,36.03
2023-05-01T08:43:30.878Z,100.00
2023-05-01T08:46:07.996Z,100.00
2023-05-01T08:48:36.805Z,100.00
2023-05-01T08:51:05.491Z,100.00
2023-05-01T08:53:34.414Z,100.00
2023-05-01T08:56:08.111Z,100.00
2023-05-01T08:58:36.537Z,100.00
2023-05-01T09:01:05.066Z,100.00
2023-05-01T09:03:34.010Z,100.00
2023-05-01T09:06:07.581Z,100.00
2023-05-01T09:08:35.825Z,100.00
2023-05-01T09:11:09.263Z,100.00
2023-05-01T09:13:37.496Z,100.00
2023-05-01T09:16:07.727Z,100.00
2023-05-01T09:18:36.680Z,36.03
2023-05-01T09:21:04.647Z,33.79
2023-05-01T09:23:33.060Z,33.64
2023-05-01T09:26:26.933Z,33.72
2023-05-01T09:28:58.419Z,33.33
2023-05-01T09:31:33.175Z,31.68
2023-05-01T09:34:07.499Z,32.09
2023-05-01T09:36:47.463Z,32.22
2023-05-01T09:39:23.828Z,32.21
2023-05-01T09:41:54.170Z,31.61
2023-05-01T09:44:22.365Z,30.88
2023-05-01T09:46:56.429Z,29.66
2023-05-01T09:49:47.613Z,30.08
2023-05-01T09:52:16.699Z,29.47
2023-05-01T09:54:48.800Z,28.41
2023-05-01T09:57:17.342Z,27.97
2023-05-01T10:00:08.136Z,29.42
2023-05-01T10:02:37.682Z,28.69
2023-05-01T10:05:08.666Z,27.52
2023-05-01T10:07:37.798Z,25.74
2023-05-01T10:10:21.448Z,25.58
2023-05-01T10:12:50.060Z,25.83
2023-05-01T10:15:25.406Z,24.79
2023-05-01T10:17:55.650Z,24.13
2023-05-01T10:20:25.319Z,23.12
2023-05-01T10:22:54.693Z,100.00
2023-05-01T10:25:25.642Z,100.00
2023-05-01T10:27:54.285Z,23.12
2023-05-01T10:30:22.751Z,100.00
2023-05-01T10:32:51.864Z,100.00
2023-05-01T10:35:26.975Z,100.00
2023-05-01T10:38:02.204Z,100.00
2023-05-01T10:40:50.924Z,100.00
2023-05-01T10:43:28.947Z,23.12
2023-05-01T10:46:19.334Z,21.67
2023-05-01T10:48:47.245Z,21.18
2023-05-01T10:51:28.109Z,21.18
2023-05-01T10:54:14.596Z,21.18
2023-05-01T10:56:44.086Z,21.11
2023-05-01T10:59:12.980Z,19.63
2023-05-01T11:01:48.586Z,20.43
2023-05-01T11:04:19.561Z,19.04
2023-05-01T11:07:05.270Z,19.40
2023-05-01T11:09:42.021Z,19.83
2023-05-01T11:12:13.697Z,19.16
2023-05-01T11:14:54.208Z,21.01
2023-05-01T11:17:52.507Z,21.48
2023-05-01T11:20:29.036Z,20.83
2023-05-01T11:22:58.147Z,22.45
2023-05-01T11:25:34.383Z,22.17
2023-05-01T11:28:06.491Z,21.71
2023-05-01T11:30:39.967Z,19.97
2023-05-01T11:33:10.635Z,19.79
2023-05-01T11:35:41.747Z,19.33
2023-05-01T11:38:21.276Z,18.86
2023-05-01T11:41:00.203Z,17.99
2023-05-01T11:43:33.985Z,17.99
2023-05-01T11:46:03.070Z,18.41
2023-05-01T11:48:32.486Z,16.30
2023-05-01T11:51:00.958Z,100.00
2023-05-01T11:53:29.973Z,100.00
2023-05-01T11:55:59.442Z,100.00
2023-05-01T11:58:33.516Z,100.00
2023-05-01T12:01:01.946Z,100.00
2023-05-01T12:03:42.748Z,16.35
2023-05-01T12:06:13.636Z,100.00
2023-05-01T14:13:05.948Z,18.79
2023-05-01T14:15:43.722Z,18.57
2023-05-01T14:18:17.759Z,19.14
2023-05-01T14:20:47.990Z,19.67
2023-05-01T14:23:20.670Z,19.67
2023-05-01T14:25:49.713Z,20.20
2023-05-01T14:28:18.272Z,20.87
2023-05-01T14:30:48.974Z,21.28
2023-05-01T14:33:17.461Z,21.38
2023-05-01T14:35:51.052Z,22.11
2023-05-01T14:38:21.358Z,22.25
2023-05-01T14:40:49.719Z,22.78
2023-05-01T14:43:20.349Z,23.44
2023-05-01T14:46:30.175Z,23.81
2023-05-01T14:49:00.291Z,23.84
2023-05-01T14:51:32.030Z,24.40
2023-05-01T14:54:00.387Z,24.20
2023-05-01T14:56:28.703Z,24.75
2023-05-01T14:58:56.966Z,25.21
2023-05-01T15:01:25.736Z,25.20
2023-05-01T15:06:13.840Z,25.72
2023-05-01T15:08:42.751Z,25.91
